sensor_id;sensor_type;location;lat;lon;timestamp;P1;durP1;ratioP1;P2;durP2;ratioP2
64966;SDS011;51710;38.732;-121.358;2022-11-15T00:00:54;5.10;;;2.40;;
64966;SDS011;51710;38.732;-121.358;2022-11-15T00:03:22;6.00;;;2.40;;
64966;SDS011;51710;38.732;-121.358;2022-11-15T00:05:49;4.28;;;2.30;;
64966;SDS011;51710;38.732;-121.358;2022-11-15T00:08:16;4.65;;;2.60;;
64966;SDS011;51710;38.732;-121.358;2022-11-15T00:10:43;6.00;;;2.55;;
64966;SDS011;51710;38.732;-121.358;2022-11-15T00:13:20;5.50;;;2.17;;
64966;SDS011;51710;38.732;-121.358;2022-11-15T00:15:47;5.63;;;2.53;;
64966;SDS011;51710;38.732;-121.358;2022-11-15T00:18:14;4.47;;;2.40;;
64966;SDS011;51710;38.732;-121.358;2022-11-15T00:20:42;4.13;;;2.17;;
64966;SDS011;51710;38.732;-121.358;2022-11-15T00:23:10;5.00;;;2.28;;
64966;SDS011;51710;38.732;-121.358;2022-11-15T00:25:37;6.25;;;2.75;;
64966;SDS011;51710;38.732;-121.358;2022-11-15T00:28:05;3.67;;;2.35;;
64966;SDS011;51710;38.732;-121.358;2022-11-15T00:30:31;4.65;;;2.17;;
64966;SDS011;51710;38.732;-121.358;2022-11-15T00:33:02;5.20;;;2.78;;
64966;SDS011;51710;38.732;-121.358;2022-11-15T00:35:32;5.78;;;2.90;;
64966;SDS011;51710;38.732;-121.358;2022-11-15T00:38:00;3.50;;;2.15;;
64966;SDS011;51710;38.732;-121.358;2022-11-15T00:40:27;4.63;;;2.45;;
64966;SDS011;51710;38.732;-121.358;2022-11-15T00:42:54;5.47;;;2.53;;
64966;SDS011;51710;38.732;-121.358;2022-11-15T00:45:21;4.90;;;2.40;;
64966;SDS011;51710;38.732;-121.358;2022-11-15T00:47:48;4.03;;;2.35;;
64966;SDS011;51710;38.732;-121.358;2022-11-15T00:50:14;6.22;;;2.80;;
64966;SDS011;51710;38.732;-121.358;2022-11-15T00:52:41;4.35;;;2.42;;
64966;SDS011;51710;38.732;-121.358;2022-11-15T00:55:17;4.32;;;2.15;;
64966;SDS011;51710;38.732;-121.358;2022-11-15T00:57:45;5.15;;;2.70;;
64966;SDS011;51710;38.732;-121.358;2022-11-15T01:00:13;5.07;;;2.58;;
64966;SDS011;51710;38.732;-121.358;2022-11-15T01:02:40;7.75;;;2.70;;
64966;SDS011;51710;38.732;-121.358;2022-11-15T01:05:07;4.65;;;2.53;;
64966;SDS011;51710;38.732;-121.358;2022-11-15T01:07:34;4.57;;;2.58;;
64966;SDS011;51710;38.732;-121.358;2022-11-15T01:10:02;4.25;;;2.30;;
64966;SDS011;51710;38.732;-121.358;2022-11-15T01:12:29;5.32;;;2.90;;
64966;SDS011;51710;38.732;-121.358;2022-11-15T01:14:56;4.65;;;2.58;;
64966;SDS011;51710;38.732;-121.358;2022-11-15T01:17:22;4.55;;;2.67;;
64966;SDS011;51710;38.732;-121.358;2022-11-15T01:19:50;5.35;;;2.70;;
64966;SDS011;51710;38.732;-121.358;2022-11-15T01:22:17;6.88;;;2.83;;
64966;SDS011;51710;38.732;-121.358;2022-11-15T01:24:44;4.90;;;2.42;;
64966;SDS011;51710;38.732;-121.358;2022-11-15T01:27:11;6.28;;;2.80;;
64966;SDS011;51710;38.732;-121.358;2022-11-15T01:29:37;8.77;;;2.90;;
64966;SDS011;51710;38.732;-121.358;2022-11-15T01:32:04;4.68;;;2.50;;
64966;SDS011;51710;38.732;-121.358;2022-11-15T01:34:31;6.47;;;2.80;;
64966;SDS011;51710;38.732;-121.358;2022-11-15T01:36:57;4.05;;;2.10;;
64966;SDS011;51710;38.732;-121.358;2022-11-15T01:39:25;4.40;;;2.28;;
64966;SDS011;51710;38.732;-121.358;2022-11-15T01:41:52;4.13;;;2.47;;
64966;SDS011;51710;38.732;-121.358;2022-11-15T01:46:58;5.95;;;2.85;;
64966;SDS011;51710;38.732;-121.358;2022-11-15T01:49:27;7.03;;;2.80;;
64966;SDS011;51710;38.732;-121.358;2022-11-15T01:51:58;4.78;;;2.50;;
64966;SDS011;51710;38.732;-121.358;2022-11-15T01:54:26;5.25;;;2.65;;
64966;SDS011;51710;38.732;-121.358;2022-11-15T01:56:58;5.07;;;2.60;;
64966;SDS011;51710;38.732;-121.358;2022-11-15T01:59:29;7.45;;;3.72;;
64966;SDS011;51710;38.732;-121.358;2022-11-15T02:01:57;6.22;;;2.90;;
64966;SDS011;51710;38.732;-121.358;2022-11-15T02:04:28;8.95;;;3.63;;
64966;SDS011;51710;38.732;-121.358;2022-11-15T02:06:57;5.72;;;3.28;;
64966;SDS011;51710;38.732;-121.358;2022-11-15T02:09:24;5.95;;;3.40;;
64966;SDS011;51710;38.732;-121.358;2022-11-15T02:11:51;6.38;;;3.72;;
64966;SDS011;51710;38.732;-121.358;2022-11-15T02:14:20;7.93;;;4.90;;
64966;SDS011;51710;38.732;-121.358;2022-11-15T02:22:35;11.90;;;7.95;;
64966;SDS011;51710;38.732;-121.358;2022-11-15T02:28:29;43.65;;;22.75;;
64966;SDS011;51710;38.732;-121.358;2022-11-15T02:37:03;17.42;;;7.93;;
64966;SDS011;51710;38.732;-121.358;2022-11-15T02:42:30;11.32;;;5.32;;
64966;SDS011;51710;38.732;-121.358;2022-11-15T02:45:22;11.40;;;5.80;;
64966;SDS011;51710;38.732;-121.358;2022-11-15T02:47:54;12.50;;;5.95;;
64966;SDS011;51710;38.732;-121.358;2022-11-15T02:50:24;10.13;;;5.55;;
64966;SDS011;51710;38.732;-121.358;2022-11-15T02:52:54;8.90;;;5.05;;
64966;SDS011;51710;38.732;-121.358;2022-11-15T02:55:35;10.13;;;4.95;;
64966;SDS011;51710;38.732;-121.358;2022-11-15T03:01:22;10.15;;;4.78;;
64966;SDS011;51710;38.732;-121.358;2022-11-15T03:04:26;9.93;;;4.32;;
64966;SDS011;51710;38.732;-121.358;2022-11-15T03:07:05;7.53;;;4.35;;
64966;SDS011;51710;38.732;-121.358;2022-11-15T03:12:56;8.48;;;3.30;;
64966;SDS011;51710;38.732;-121.358;2022-11-15T03:15:36;7.15;;;4.20;;
64966;SDS011;51710;38.732;-121.358;2022-11-15T03:21:10;19.80;;;9.40;;
64966;SDS011;51710;38.732;-121.358;2022-11-15T03:23:40;11.05;;;5.72;;
64966;SDS011;51710;38.732;-121.358;2022-11-15T03:26:09;6.20;;;3.45;;
64966;SDS011;51710;38.732;-121.358;2022-11-15T03:31:17;5.45;;;3.20;;
64966;SDS011;51710;38.732;-121.358;2022-11-15T03:34:07;6.68;;;2.97;;
64966;SDS011;51710;38.732;-121.358;2022-11-15T03:36:39;6.15;;;3.70;;
64966;SDS011;51710;38.732;-121.358;2022-11-15T03:39:07;5.82;;;3.05;;
64966;SDS011;51710;38.732;-121.358;2022-11-15T03:42:19;6.88;;;3.63;;
64966;SDS011;51710;38.732;-121.358;2022-11-15T03:47:10;8.10;;;3.63;;
64966;SDS011;51710;38.732;-121.358;2022-11-15T03:50:19;6.90;;;3.35;;
64966;SDS011;51710;38.732;-121.358;2022-11-15T03:52:47;5.85;;;3.38;;
64966;SDS011;51710;38.732;-121.358;2022-11-15T03:55:17;4.93;;;3.00;;
64966;SDS011;51710;38.732;-121.358;2022-11-15T03:57:46;5.93;;;3.20;;
64966;SDS011;51710;38.732;-121.358;2022-11-15T04:00:16;6.05;;;3.25;;
64966;SDS011;51710;38.732;-121.358;2022-11-15T04:02:42;6.88;;;3.50;;
64966;SDS011;51710;38.732;-121.358;2022-11-15T04:05:10;9.90;;;3.83;;
64966;SDS011;51710;38.732;-121.358;2022-11-15T04:07:36;4.85;;;3.35;;
64966;SDS011;51710;38.732;-121.358;2022-11-15T04:10:04;5.78;;;4.03;;
64966;SDS011;51710;38.732;-121.358;2022-11-15T04:12:35;15.13;;;8.45;;
64966;SDS011;51710;38.732;-121.358;2022-11-15T04:15:08;7.20;;;3.95;;
64966;SDS011;51710;38.732;-121.358;2022-11-15T04:20:10;6.00;;;4.10;;
64966;SDS011;51710;38.732;-121.358;2022-11-15T04:23:00;7.38;;;4.10;;
64966;SDS011;51710;38.732;-121.358;2022-11-15T04:25:47;5.10;;;3.50;;
64966;SDS011;51710;38.732;-121.358;2022-11-15T04:28:16;7.47;;;3.83;;
64966;SDS011;51710;38.732;-121.358;2022-11-15T04:30:44;6.13;;;3.90;;
64966;SDS011;51710;38.732;-121.358;2022-11-15T04:33:11;6.32;;;3.75;;
64966;SDS011;51710;38.732;-121.358;2022-11-15T04:35:40;8.02;;;3.85;;
64966;SDS011;51710;38.732;-121.358;2022-11-15T04:38:09;6.03;;;3.55;;
64966;SDS011;51710;38.732;-121.358;2022-11-15T04:40:37;6.25;;;3.70;;
64966;SDS011;51710;38.732;-121.358;2022-11-15T04:43:04;6.35;;;3.60;;
64966;SDS011;51710;38.732;-121.358;2022-11-15T04:45:30;10.50;;;4.45;;
64966;SDS011;51710;38.732;-121.358;2022-11-15T04:47:57;8.60;;;4.68;;
64966;SDS011;51710;38.732;-121.358;2022-11-15T04:50:24;8.98;;;4.80;;
64966;SDS011;51710;38.732;-121.358;2022-11-15T04:52:51;7.28;;;4.60;;
64966;SDS011;51710;38.732;-121.358;2022-11-15T04:55:20;9.88;;;5.03;;
64966;SDS011;51710;38.732;-121.358;2022-11-15T04:57:46;8.23;;;5.00;;
64966;SDS011;51710;38.732;-121.358;2022-11-15T05:00:23;8.65;;;5.00;;
64966;SDS011;51710;38.732;-121.358;2022-11-15T05:02:50;8.13;;;4.45;;
64966;SDS011;51710;38.732;-121.358;2022-11-15T05:05:35;9.50;;;5.15;;
64966;SDS011;51710;38.732;-121.358;2022-11-15T05:08:02;10.50;;;5.18;;
64966;SDS011;51710;38.732;-121.358;2022-11-15T05:10:29;9.88;;;5.15;;
64966;SDS011;51710;38.732;-121.358;2022-11-15T05:12:57;11.07;;;5.70;;
64966;SDS011;51710;38.732;-121.358;2022-11-15T05:15:24;9.15;;;5.25;;
64966;SDS011;51710;38.732;-121.358;2022-11-15T05:17:56;10.35;;;5.20;;
64966;SDS011;51710;38.732;-121.358;2022-11-15T05:20:25;11.57;;;6.28;;
64966;SDS011;51710;38.732;-121.358;2022-11-15T05:22:52;9.90;;;6.05;;
64966;SDS011;51710;38.732;-121.358;2022-11-15T05:25:21;9.93;;;6.25;;
64966;SDS011;51710;38.732;-121.358;2022-11-15T05:27:48;12.13;;;6.75;;
64966;SDS011;51710;38.732;-121.358;2022-11-15T05:30:15;11.35;;;6.95;;
64966;SDS011;51710;38.732;-121.358;2022-11-15T05:32:43;11.18;;;6.13;;
64966;SDS011;51710;38.732;-121.358;2022-11-15T05:35:12;10.30;;;5.90;;
64966;SDS011;51710;38.732;-121.358;2022-11-15T05:37:46;11.07;;;6.00;;
64966;SDS011;51710;38.732;-121.358;2022-11-15T05:40:15;8.38;;;5.35;;
64966;SDS011;51710;38.732;-121.358;2022-11-15T05:42:42;11.20;;;5.75;;
64966;SDS011;51710;38.732;-121.358;2022-11-15T05:45:12;10.05;;;5.50;;
64966;SDS011;51710;38.732;-121.358;2022-11-15T05:47:39;11.85;;;5.38;;
64966;SDS011;51710;38.732;-121.358;2022-11-15T05:50:07;10.70;;;5.30;;
64966;SDS011;51710;38.732;-121.358;2022-11-15T05:52:37;11.30;;;5.68;;
64966;SDS011;51710;38.732;-121.358;2022-11-15T05:55:04;9.73;;;5.50;;
64966;SDS011;51710;38.732;-121.358;2022-11-15T05:57:33;12.13;;;5.78;;
64966;SDS011;51710;38.732;-121.358;2022-11-15T06:00:00;12.77;;;6.20;;
64966;SDS011;51710;38.732;-121.358;2022-11-15T06:02:29;12.35;;;6.00;;
64966;SDS011;51710;38.732;-121.358;2022-11-15T06:04:57;11.00;;;5.30;;
64966;SDS011;51710;38.732;-121.358;2022-11-15T06:07:24;8.48;;;5.30;;
64966;SDS011;51710;38.732;-121.358;2022-11-15T06:09:51;10.93;;;6.32;;
64966;SDS011;51710;38.732;-121.358;2022-11-15T06:12:18;15.07;;;6.68;;
64966;SDS011;51710;38.732;-121.358;2022-11-15T06:14:45;12.98;;;7.18;;
64966;SDS011;51710;38.732;-121.358;2022-11-15T06:17:12;12.52;;;6.55;;
64966;SDS011;51710;38.732;-121.358;2022-11-15T06:19:39;9.20;;;6.15;;
64966;SDS011;51710;38.732;-121.358;2022-11-15T06:22:06;10.73;;;6.60;;
64966;SDS011;51710;38.732;-121.358;2022-11-15T06:24:34;13.02;;;7.70;;
64966;SDS011;51710;38.732;-121.358;2022-11-15T06:27:01;11.80;;;7.40;;
64966;SDS011;51710;38.732;-121.358;2022-11-15T06:29:28;10.85;;;6.35;;
64966;SDS011;51710;38.732;-121.358;2022-11-15T06:31:55;12.85;;;7.43;;
64966;SDS011;51710;38.732;-121.358;2022-11-15T06:34:22;15.27;;;7.38;;
64966;SDS011;51710;38.732;-121.358;2022-11-15T06:36:49;13.35;;;7.10;;
64966;SDS011;51710;38.732;-121.358;2022-11-15T06:39:15;13.02;;;6.75;;
64966;SDS011;51710;38.732;-121.358;2022-11-15T06:41:43;12.02;;;7.10;;
64966;SDS011;51710;38.732;-121.358;2022-11-15T06:44:09;17.17;;;7.47;;
64966;SDS011;51710;38.732;-121.358;2022-11-15T06:46:37;12.60;;;6.80;;
64966;SDS011;51710;38.732;-121.358;2022-11-15T06:49:04;12.95;;;7.13;;
64966;SDS011;51710;38.732;-121.358;2022-11-15T06:51:31;10.95;;;6.22;;
64966;SDS011;51710;38.732;-121.358;2022-11-15T06:53:58;12.73;;;7.22;;
64966;SDS011;51710;38.732;-121.358;2022-11-15T06:56:25;15.90;;;6.53;;
64966;SDS011;51710;38.732;-121.358;2022-11-15T06:58:52;11.82;;;6.70;;
64966;SDS011;51710;38.732;-121.358;2022-11-15T07:01:20;10.07;;;6.13;;
64966;SDS011;51710;38.732;-121.358;2022-11-15T07:03:47;10.60;;;6.20;;
64966;SDS011;51710;38.732;-121.358;2022-11-15T07:06:14;11.88;;;6.45;;
64966;SDS011;51710;38.732;-121.358;2022-11-15T07:08:41;10.02;;;6.38;;
64966;SDS011;51710;38.732;-121.358;2022-11-15T07:11:08;14.18;;;7.13;;
64966;SDS011;51710;38.732;-121.358;2022-11-15T07:13:35;13.10;;;6.47;;
64966;SDS011;51710;38.732;-121.358;2022-11-15T07:16:07;9.93;;;6.10;;
64966;SDS011;51710;38.732;-121.358;2022-11-15T07:18:36;12.98;;;6.32;;
64966;SDS011;51710;38.732;-121.358;2022-11-15T07:21:05;11.15;;;6.43;;
64966;SDS011;51710;38.732;-121.358;2022-11-15T07:23:38;12.52;;;6.40;;
64966;SDS011;51710;38.732;-121.358;2022-11-15T07:26:05;11.45;;;5.90;;
64966;SDS011;51710;38.732;-121.358;2022-11-15T07:28:33;8.80;;;5.60;;
64966;SDS011;51710;38.732;-121.358;2022-11-15T07:31:04;8.90;;;5.75;;
64966;SDS011;51710;38.732;-121.358;2022-11-15T07:33:32;9.50;;;5.55;;
64966;SDS011;51710;38.732;-121.358;2022-11-15T07:36:03;13.00;;;6.00;;
64966;SDS011;51710;38.732;-121.358;2022-11-15T07:38:32;9.40;;;5.30;;
64966;SDS011;51710;38.732;-121.358;2022-11-15T07:41:04;9.15;;;5.80;;
64966;SDS011;51710;38.732;-121.358;2022-11-15T07:43:32;10.00;;;6.05;;
64966;SDS011;51710;38.732;-121.358;2022-11-15T07:46:04;11.35;;;6.60;;
64966;SDS011;51710;38.732;-121.358;2022-11-15T07:48:38;10.38;;;6.05;;
64966;SDS011;51710;38.732;-121.358;2022-11-15T07:51:06;13.73;;;6.10;;
64966;SDS011;51710;38.732;-121.358;2022-11-15T07:53:36;12.95;;;6.18;;
64966;SDS011;51710;38.732;-121.358;2022-11-15T07:56:05;11.15;;;5.68;;
64966;SDS011;51710;38.732;-121.358;2022-11-15T07:58:33;9.30;;;5.68;;
64966;SDS011;51710;38.732;-121.358;2022-11-15T08:01:03;8.75;;;5.07;;
64966;SDS011;51710;38.732;-121.358;2022-11-15T08:03:31;13.48;;;5.55;;
64966;SDS011;51710;38.732;-121.358;2022-11-15T08:05:58;11.40;;;6.53;;
64966;SDS011;51710;38.732;-121.358;2022-11-15T08:08:25;8.98;;;5.47;;
64966;SDS011;51710;38.732;-121.358;2022-11-15T08:10:52;8.32;;;5.38;;
64966;SDS011;51710;38.732;-121.358;2022-11-15T08:13:20;16.73;;;5.80;;
64966;SDS011;51710;38.732;-121.358;2022-11-15T08:15:47;10.82;;;5.53;;
64966;SDS011;51710;38.732;-121.358;2022-11-15T08:18:20;8.80;;;5.30;;
64966;SDS011;51710;38.732;-121.358;2022-11-15T08:20:50;12.13;;;6.25;;
64966;SDS011;51710;38.732;-121.358;2022-11-15T08:23:16;11.63;;;6.20;;
64966;SDS011;51710;38.732;-121.358;2022-11-15T08:25:43;11.75;;;6.85;;
64966;SDS011;51710;38.732;-121.358;2022-11-15T08:28:11;12.68;;;7.03;;
64966;SDS011;51710;38.732;-121.358;2022-11-15T08:30:39;14.02;;;7.43;;
64966;SDS011;51710;38.732;-121.358;2022-11-15T08:33:12;10.85;;;5.78;;
64966;SDS011;51710;38.732;-121.358;2022-11-15T08:35:40;13.27;;;6.72;;
64966;SDS011;51710;38.732;-121.358;2022-11-15T08:38:08;10.40;;;6.05;;
64966;SDS011;51710;38.732;-121.358;2022-11-15T08:40:36;11.57;;;6.32;;
64966;SDS011;51710;38.732;-121.358;2022-11-15T08:43:04;10.50;;;6.32;;
64966;SDS011;51710;38.732;-121.358;2022-11-15T08:45:31;10.15;;;6.28;;
64966;SDS011;51710;38.732;-121.358;2022-11-15T08:48:00;11.23;;;6.63;;
64966;SDS011;51710;38.732;-121.358;2022-11-15T08:50:27;12.85;;;6.35;;
64966;SDS011;51710;38.732;-121.358;2022-11-15T08:52:54;10.65;;;6.50;;
64966;SDS011;51710;38.732;-121.358;2022-11-15T08:55:20;11.52;;;6.88;;
64966;SDS011;51710;38.732;-121.358;2022-11-15T08:57:47;15.77;;;6.70;;
64966;SDS011;51710;38.732;-121.358;2022-11-15T09:00:13;10.57;;;6.38;;
64966;SDS011;51710;38.732;-121.358;2022-11-15T09:02:40;12.18;;;6.82;;
64966;SDS011;51710;38.732;-121.358;2022-11-15T09:05:07;11.65;;;6.70;;
64966;SDS011;51710;38.732;-121.358;2022-11-15T09:07:33;11.02;;;7.22;;
64966;SDS011;51710;38.732;-121.358;2022-11-15T09:10:00;14.77;;;6.63;;
64966;SDS011;51710;38.732;-121.358;2022-11-15T09:12:27;9.85;;;6.88;;
64966;SDS011;51710;38.732;-121.358;2022-11-15T09:14:53;12.98;;;6.22;;
64966;SDS011;51710;38.732;-121.358;2022-11-15T09:17:20;9.85;;;6.03;;
64966;SDS011;51710;38.732;-121.358;2022-11-15T09:19:46;11.35;;;6.47;;
64966;SDS011;51710;38.732;-121.358;2022-11-15T09:22:12;9.13;;;6.45;;
64966;SDS011;51710;38.732;-121.358;2022-11-15T09:24:39;13.25;;;6.30;;
64966;SDS011;51710;38.732;-121.358;2022-11-15T09:27:05;12.45;;;6.22;;
64966;SDS011;51710;38.732;-121.358;2022-11-15T09:29:31;12.50;;;6.55;;
64966;SDS011;51710;38.732;-121.358;2022-11-15T09:32:01;11.95;;;7.00;;
64966;SDS011;51710;38.732;-121.358;2022-11-15T09:34:27;12.18;;;6.88;;
64966;SDS011;51710;38.732;-121.358;2022-11-15T09:36:53;10.20;;;6.75;;
64966;SDS011;51710;38.732;-121.358;2022-11-15T09:39:20;11.07;;;6.68;;
64966;SDS011;51710;38.732;-121.358;2022-11-15T09:42:09;11.65;;;6.97;;
64966;SDS011;51710;38.732;-121.358;2022-11-15T09:47:38;10.50;;;6.60;;
64966;SDS011;51710;38.732;-121.358;2022-11-15T09:53:41;10.00;;;6.38;;
64966;SDS011;51710;38.732;-121.358;2022-11-15T09:56:23;12.32;;;7.13;;
64966;SDS011;51710;38.732;-121.358;2022-11-15T10:04:47;12.48;;;6.57;;
64966;SDS011;51710;38.732;-121.358;2022-11-15T10:07:19;12.48;;;7.53;;
64966;SDS011;51710;38.732;-121.358;2022-11-15T10:12:28;13.43;;;7.40;;
64966;SDS011;51710;38.732;-121.358;2022-11-15T10:15:04;13.85;;;6.75;;
64966;SDS011;51710;38.732;-121.358;2022-11-15T10:18:02;18.13;;;6.35;;
64966;SDS011;51710;38.732;-121.358;2022-11-15T10:20:32;11.05;;;6.82;;
64966;SDS011;51710;38.732;-121.358;2022-11-15T10:23:19;13.90;;;6.85;;
64966;SDS011;51710;38.732;-121.358;2022-11-15T10:25:47;10.20;;;6.35;;
64966;SDS011;51710;38.732;-121.358;2022-11-15T10:30:53;10.70;;;6.15;;
64966;SDS011;51710;38.732;-121.358;2022-11-15T10:41:15;12.93;;;6.45;;
64966;SDS011;51710;38.732;-121.358;2022-11-15T10:43:43;13.27;;;6.43;;
64966;SDS011;51710;38.732;-121.358;2022-11-15T10:46:20;11.68;;;6.68;;
64966;SDS011;51710;38.732;-121.358;2022-11-15T10:48:48;8.85;;;5.75;;
64966;SDS011;51710;38.732;-121.358;2022-11-15T10:51:24;13.88;;;7.47;;
64966;SDS011;51710;38.732;-121.358;2022-11-15T10:53:57;10.45;;;6.35;;
64966;SDS011;51710;38.732;-121.358;2022-11-15T10:56:26;10.68;;;6.20;;
64966;SDS011;51710;38.732;-121.358;2022-11-15T10:58:54;12.00;;;6.72;;
64966;SDS011;51710;38.732;-121.358;2022-11-15T11:01:23;14.38;;;7.03;;
64966;SDS011;51710;38.732;-121.358;2022-11-15T11:06:50;13.70;;;7.18;;
64966;SDS011;51710;38.732;-121.358;2022-11-15T11:09:32;11.57;;;6.88;;
64966;SDS011;51710;38.732;-121.358;2022-11-15T11:12:01;14.13;;;6.75;;
64966;SDS011;51710;38.732;-121.358;2022-11-15T11:14:30;10.52;;;6.82;;
64966;SDS011;51710;38.732;-121.358;2022-11-15T11:19:56;13.38;;;7.35;;
64966;SDS011;51710;38.732;-121.358;2022-11-15T11:25:14;13.68;;;7.13;;
64966;SDS011;51710;38.732;-121.358;2022-11-15T11:30:24;12.27;;;6.78;;
64966;SDS011;51710;38.732;-121.358;2022-11-15T11:36:03;10.30;;;6.40;;
64966;SDS011;51710;38.732;-121.358;2022-11-15T11:39:13;11.05;;;6.38;;
64966;SDS011;51710;38.732;-121.358;2022-11-15T11:42:10;11.25;;;7.20;;
64966;SDS011;51710;38.732;-121.358;2022-11-15T11:45:18;9.60;;;6.18;;
64966;SDS011;51710;38.732;-121.358;2022-11-15T11:48:26;11.30;;;6.47;;
64966;SDS011;51710;38.732;-121.358;2022-11-15T11:51:13;10.65;;;5.88;;
64966;SDS011;51710;38.732;-121.358;2022-11-15T11:56:38;14.50;;;6.50;;
64966;SDS011;51710;38.732;-121.358;2022-11-15T12:04:51;12.43;;;6.63;;
64966;SDS011;51710;38.732;-121.358;2022-11-15T12:07:24;10.95;;;6.65;;
64966;SDS011;51710;38.732;-121.358;2022-11-15T12:13:06;9.73;;;6.20;;
64966;SDS011;51710;38.732;-121.358;2022-11-15T12:15:41;11.88;;;5.90;;
64966;SDS011;51710;38.732;-121.358;2022-11-15T12:18:13;10.15;;;5.85;;
64966;SDS011;51710;38.732;-121.358;2022-11-15T12:20:47;13.25;;;5.78;;
64966;SDS011;51710;38.732;-121.358;2022-11-15T12:23:28;15.65;;;6.43;;
64966;SDS011;51710;38.732;-121.358;2022-11-15T12:26:29;10.85;;;6.32;;
64966;SDS011;51710;38.732;-121.358;2022-11-15T12:29:48;9.68;;;6.25;;
64966;SDS011;51710;38.732;-121.358;2022-11-15T12:34:55;10.90;;;6.13;;
64966;SDS011;51710;38.732;-121.358;2022-11-15T12:42:42;9.80;;;5.82;;
64966;SDS011;51710;38.732;-121.358;2022-11-15T12:45:27;10.57;;;6.63;;
64966;SDS011;51710;38.732;-121.358;2022-11-15T12:58:48;9.52;;;5.80;;
64966;SDS011;51710;38.732;-121.358;2022-11-15T13:06:46;9.70;;;5.80;;
64966;SDS011;51710;38.732;-121.358;2022-11-15T13:12:02;10.02;;;5.97;;
64966;SDS011;51710;38.732;-121.358;2022-11-15T13:14:39;11.38;;;6.53;;
64966;SDS011;51710;38.732;-121.358;2022-11-15T13:19:46;7.90;;;5.57;;
64966;SDS011;51710;38.732;-121.358;2022-11-15T13:22:24;10.10;;;5.93;;
64966;SDS011;51710;38.732;-121.358;2022-11-15T13:33:16;10.15;;;5.57;;
64966;SDS011;51710;38.732;-121.358;2022-11-15T13:35:50;9.90;;;5.00;;
64966;SDS011;51710;38.732;-121.358;2022-11-15T13:38:27;8.68;;;5.63;;
64966;SDS011;51710;38.732;-121.358;2022-11-15T13:40:57;9.70;;;5.82;;
64966;SDS011;51710;38.732;-121.358;2022-11-15T13:46:07;10.85;;;5.60;;
64966;SDS011;51710;38.732;-121.358;2022-11-15T13:48:51;13.27;;;5.82;;
64966;SDS011;51710;38.732;-121.358;2022-11-15T13:51:29;8.63;;;5.65;;
64966;SDS011;51710;38.732;-121.358;2022-11-15T13:54:07;11.20;;;5.07;;
64966;SDS011;51710;38.732;-121.358;2022-11-15T13:56:53;8.85;;;5.50;;
64966;SDS011;51710;38.732;-121.358;2022-11-15T13:59:29;8.63;;;5.50;;
64966;SDS011;51710;38.732;-121.358;2022-11-15T14:02:02;9.13;;;5.35;;
64966;SDS011;51710;38.732;-121.358;2022-11-15T14:04:38;8.68;;;5.70;;
64966;SDS011;51710;38.732;-121.358;2022-11-15T14:07:20;13.10;;;5.47;;
64966;SDS011;51710;38.732;-121.358;2022-11-15T14:09:47;7.68;;;4.97;;
64966;SDS011;51710;38.732;-121.358;2022-11-15T14:14:50;10.05;;;5.47;;
64966;SDS011;51710;38.732;-121.358;2022-11-15T14:17:21;10.05;;;5.00;;
64966;SDS011;51710;38.732;-121.358;2022-11-15T14:20:00;9.13;;;5.05;;
64966;SDS011;51710;38.732;-121.358;2022-11-15T14:22:28;8.80;;;5.53;;
64966;SDS011;51710;38.732;-121.358;2022-11-15T14:25:15;9.25;;;5.60;;
64966;SDS011;51710;38.732;-121.358;2022-11-15T14:30:54;8.75;;;5.53;;
64966;SDS011;51710;38.732;-121.358;2022-11-15T14:33:32;8.48;;;5.60;;
64966;SDS011;51710;38.732;-121.358;2022-11-15T14:36:11;8.75;;;5.13;;
64966;SDS011;51710;38.732;-121.358;2022-11-15T14:38:39;12.48;;;5.40;;
64966;SDS011;51710;38.732;-121.358;2022-11-15T14:41:16;10.63;;;5.68;;
64966;SDS011;51710;38.732;-121.358;2022-11-15T14:43:47;14.35;;;5.72;;
64966;SDS011;51710;38.732;-121.358;2022-11-15T14:46:15;8.73;;;4.68;;
64966;SDS011;51710;38.732;-121.358;2022-11-15T14:48:41;7.75;;;4.72;;
64966;SDS011;51710;38.732;-121.358;2022-11-15T14:51:11;11.35;;;5.45;;
64966;SDS011;51710;38.732;-121.358;2022-11-15T14:53:44;8.73;;;5.43;;
64966;SDS011;51710;38.732;-121.358;2022-11-15T14:56:12;10.82;;;6.28;;
64966;SDS011;51710;38.732;-121.358;2022-11-15T14:58:39;10.07;;;5.60;;
64966;SDS011;51710;38.732;-121.358;2022-11-15T15:01:11;9.93;;;6.00;;
64966;SDS011;51710;38.732;-121.358;2022-11-15T15:03:40;11.00;;;5.85;;
64966;SDS011;51710;38.732;-121.358;2022-11-15T15:06:09;13.95;;;6.57;;
64966;SDS011;51710;38.732;-121.358;2022-11-15T15:08:38;10.27;;;6.18;;
64966;SDS011;51710;38.732;-121.358;2022-11-15T15:11:14;11.85;;;6.30;;
64966;SDS011;51710;38.732;-121.358;2022-11-15T15:13:49;10.90;;;5.77;;
64966;SDS011;51710;38.732;-121.358;2022-11-15T15:16:16;7.95;;;5.47;;
64966;SDS011;51710;38.732;-121.358;2022-11-15T15:18:42;9.48;;;6.18;;
64966;SDS011;51710;38.732;-121.358;2022-11-15T15:21:17;11.75;;;5.60;;
64966;SDS011;51710;38.732;-121.358;2022-11-15T15:23:54;8.70;;;5.40;;
64966;SDS011;51710;38.732;-121.358;2022-11-15T15:26:20;8.75;;;5.00;;
64966;SDS011;51710;38.732;-121.358;2022-11-15T15:28:47;9.07;;;5.38;;
64966;SDS011;51710;38.732;-121.358;2022-11-15T15:31:16;9.32;;;5.13;;
64966;SDS011;51710;38.732;-121.358;2022-11-15T15:33:42;8.32;;;5.25;;
64966;SDS011;51710;38.732;-121.358;2022-11-15T15:36:13;8.40;;;5.35;;
64966;SDS011;51710;38.732;-121.358;2022-11-15T15:38:42;10.75;;;5.22;;
64966;SDS011;51710;38.732;-121.358;2022-11-15T15:41:12;10.52;;;5.32;;
64966;SDS011;51710;38.732;-121.358;2022-11-15T15:43:39;8.70;;;5.15;;
64966;SDS011;51710;38.732;-121.358;2022-11-15T15:46:16;10.02;;;5.20;;
64966;SDS011;51710;38.732;-121.358;2022-11-15T15:48:43;9.85;;;5.50;;
64966;SDS011;51710;38.732;-121.358;2022-11-15T15:51:11;8.27;;;5.43;;
64966;SDS011;51710;38.732;-121.358;2022-11-15T15:53:37;12.52;;;5.85;;
64966;SDS011;51710;38.732;-121.358;2022-11-15T15:56:04;9.52;;;5.60;;
64966;SDS011;51710;38.732;-121.358;2022-11-15T15:58:33;8.30;;;4.72;;
64966;SDS011;51710;38.732;-121.358;2022-11-15T16:01:00;7.03;;;4.93;;
64966;SDS011;51710;38.732;-121.358;2022-11-15T16:03:29;9.70;;;4.90;;
64966;SDS011;51710;38.732;-121.358;2022-11-15T16:05:56;10.68;;;5.63;;
64966;SDS011;51710;38.732;-121.358;2022-11-15T16:08:24;11.32;;;5.07;;
64966;SDS011;51710;38.732;-121.358;2022-11-15T16:10:55;11.48;;;5.15;;
64966;SDS011;51710;38.732;-121.358;2022-11-15T16:13:21;10.35;;;5.30;;
64966;SDS011;51710;38.732;-121.358;2022-11-15T16:15:49;9.18;;;4.18;;
64966;SDS011;51710;38.732;-121.358;2022-11-15T16:18:20;9.98;;;5.20;;
64966;SDS011;51710;38.732;-121.358;2022-11-15T16:20:47;10.60;;;4.95;;
64966;SDS011;51710;38.732;-121.358;2022-11-15T16:23:21;10.63;;;4.78;;
64966;SDS011;51710;38.732;-121.358;2022-11-15T16:25:51;8.65;;;4.35;;
64966;SDS011;51710;38.732;-121.358;2022-11-15T16:28:24;7.18;;;4.22;;
64966;SDS011;51710;38.732;-121.358;2022-11-15T16:31:03;8.45;;;4.43;;
64966;SDS011;51710;38.732;-121.358;2022-11-15T16:33:31;7.45;;;3.75;;
64966;SDS011;51710;38.732;-121.358;2022-11-15T16:35:58;7.38;;;4.00;;
64966;SDS011;51710;38.732;-121.358;2022-11-15T16:38:24;6.25;;;3.30;;
64966;SDS011;51710;38.732;-121.358;2022-11-15T16:40:51;7.00;;;3.30;;